createdAt,value
2018-03-16T00:02:48.185Z,3.37
2018-03-16T00:18:43.007Z,5.13
2018-03-16T00:23:51.267Z,4.33
2018-03-16T00:28:55.276Z,5.10
2018-03-16T00:33:58.667Z,5.10
2018-03-16T00:39:01.284Z,5.70
2018-03-16T00:44:03.911Z,5.50
2018-03-16T00:49:07.156Z,5.60
2018-03-16T00:54:09.760Z,4.90
2018-03-16T00:59:12.378Z,4.37
2018-03-16T01:04:15.007Z,3.90
2018-03-16T01:09:23.763Z,4.43
2018-03-16T01:14:27.660Z,4.00
2018-03-16T01:19:31.041Z,4.47
2018-03-16T01:24:34.088Z,4.53
2018-03-16T01:29:37.288Z,4.23
2018-03-16T01:34:39.919Z,8.20
2018-03-16T01:39:43.313Z,4.10
2018-03-16T01:44:49.910Z,4.13
2018-03-16T01:49:53.349Z,7.20
2018-03-16T01:54:56.726Z,5.10
2018-03-16T01:59:59.409Z,4.77
2018-03-16T02:05:02.418Z,4.90
2018-03-16T02:10:05.052Z,3.70
2018-03-16T02:15:08.292Z,5.17
2018-03-16T02:20:11.598Z,5.47
2018-03-16T02:25:14.994Z,5.70
2018-03-16T02:30:17.632Z,4.00
2018-03-16T02:35:21.407Z,5.87
2018-03-16T02:40:24.032Z,4.37
2018-03-16T02:45:27.400Z,5.20
2018-03-16T02:50:31.605Z,4.37
2018-03-16T03:00:43.262Z,6.93
2018-03-16T03:05:45.900Z,5.60
2018-03-16T03:10:48.506Z,5.10
2018-03-16T03:15:51.118Z,6.30
2018-03-16T03:20:53.739Z,4.90
2018-03-16T03:25:57.756Z,5.37
2018-03-16T03:31:01.143Z,6.10
2018-03-16T03:36:03.912Z,5.70
2018-03-16T03:41:07.054Z,5.13
2018-03-16T03:46:10.349Z,6.23
2018-03-16T03:51:13.484Z,5.40
2018-03-16T03:56:16.374Z,6.70
2018-03-16T04:01:18.982Z,5.57
2018-03-16T04:06:21.611Z,6.70
2018-03-16T04:11:24.255Z,5.63
2018-03-16T04:16:27.445Z,6.60
2018-03-16T04:21:30.067Z,5.60
2018-03-16T04:26:34.357Z,6.83
2018-03-16T04:31:38.344Z,5.20
2018-03-16T04:36:41.316Z,6.47
2018-03-16T04:41:45.160Z,7.10
2018-03-16T04:46:48.859Z,6.23
2018-03-16T04:51:52.255Z,7.70
2018-03-16T04:56:55.456Z,8.27
2018-03-16T05:01:59.143Z,8.07
2018-03-16T05:07:02.074Z,10.70
2018-03-16T05:12:06.311Z,8.10
2018-03-16T05:17:12.194Z,9.77
2018-03-16T05:22:14.814Z,9.40
2018-03-16T05:27:21.426Z,9.73
2018-03-16T05:32:24.807Z,9.13
2018-03-16T05:37:27.434Z,8.93
2018-03-16T05:42:31.267Z,10.90
2018-03-16T05:47:34.686Z,90.83
2018-03-16T05:52:40.790Z,32.10
2018-03-16T05:57:44.074Z,12.93
2018-03-16T06:02:48.034Z,15.00
2018-03-16T06:07:53.962Z,12.23
2018-03-16T06:12:57.682Z,20.40
2018-03-16T06:18:01.718Z,16.00
2018-03-16T06:23:05.185Z,11.03
2018-03-16T06:28:07.863Z,14.87
2018-03-16T06:33:11.649Z,20.37
2018-03-16T06:38:14.851Z,15.67
2018-03-16T06:43:18.277Z,15.93
2018-03-16T06:48:21.636Z,14.57
2018-03-16T06:53:26.959Z,16.93
2018-03-16T06:58:29.628Z,15.97
2018-03-16T07:03:36.071Z,16.03
2018-03-16T07:08:39.506Z,15.60
2018-03-16T07:13:42.932Z,18.70
2018-03-16T07:18:45.556Z,16.97
2018-03-16T07:23:48.206Z,17.47
2018-03-16T07:28:50.924Z,20.27
2018-03-16T07:33:54.323Z,21.40
2018-03-16T07:38:56.962Z,19.70
2018-03-16T07:43:59.951Z,25.17
2018-03-16T07:49:04.580Z,18.63
2018-03-16T07:54:08.626Z,17.13
2018-03-16T07:59:12.015Z,19.10
2018-03-16T08:04:14.650Z,18.50
2018-03-16T08:09:19.987Z,20.53
2018-03-16T08:14:22.634Z,19.17
2018-03-16T08:19:25.265Z,16.70
2018-03-16T08:24:28.156Z,17.70
2018-03-16T08:29:30.783Z,17.70
2018-03-16T08:34:50.795Z,20.73
2018-03-16T08:39:54.189Z,18.67
2018-03-16T08:45:00.284Z,19.73
2018-03-16T08:50:06.042Z,25.70
2018-03-16T08:55:09.238Z,21.27
2018-03-16T09:00:11.868Z,22.10
2018-03-16T09:05:14.494Z,20.20
2018-03-16T09:10:17.895Z,21.90
2018-03-16T09:15:20.513Z,22.50
2018-03-16T09:20:25.364Z,22.57
2018-03-16T09:25:29.164Z,22.00
2018-03-16T09:30:31.777Z,26.07
2018-03-16T09:35:35.203Z,24.87
2018-03-16T09:40:39.469Z,23.27
2018-03-16T09:45:42.569Z,25.20
2018-03-16T09:50:45.218Z,17.20
2018-03-16T09:55:47.858Z,18.37
2018-03-16T10:00:50.951Z,15.47
2018-03-16T10:05:54.335Z,18.17
2018-03-16T10:10:57.575Z,14.23
2018-03-16T10:16:01.068Z,17.73
2018-03-16T10:21:03.693Z,18.53
2018-03-16T10:26:07.292Z,12.30
2018-03-16T10:31:09.946Z,13.70
2018-03-16T10:36:14.676Z,12.20
2018-03-16T10:41:19.935Z,15.07
2018-03-16T10:46:23.339Z,16.40
2018-03-16T10:51:27.183Z,11.43
2018-03-16T10:56:30.827Z,13.00
2018-03-16T11:01:39.227Z,10.50
2018-03-16T11:12:28.431Z,11.70
2018-03-16T11:17:31.830Z,12.40
2018-03-16T11:22:34.505Z,8.77
2018-03-16T11:27:37.153Z,7.20
2018-03-16T11:32:40.392Z,4.90
2018-03-16T11:37:43.043Z,11.77
2018-03-16T11:42:46.449Z,5.40
2018-03-16T11:47:49.690Z,7.03
2018-03-16T11:52:52.355Z,6.60
2018-03-16T11:57:55.040Z,6.10
2018-03-16T12:02:57.692Z,5.80
2018-03-16T12:08:00.363Z,8.77
2018-03-16T12:13:03.798Z,9.67
2018-03-16T12:18:06.475Z,5.93
2018-03-16T12:23:10.012Z,7.23
2018-03-16T12:28:13.456Z,6.87
2018-03-16T12:33:16.121Z,5.43
2018-03-16T12:38:25.035Z,5.20
2018-03-16T12:43:28.326Z,8.03
2018-03-16T12:48:30.975Z,5.57
2018-03-16T12:53:34.371Z,6.10
2018-03-16T12:58:37.105Z,5.20
2018-03-16T13:03:43.418Z,4.93
2018-03-16T13:08:46.086Z,4.50
2018-03-16T13:13:49.075Z,10.97
2018-03-16T13:18:52.592Z,10.77
2018-03-16T13:23:55.266Z,8.10
2018-03-16T13:28:57.985Z,5.70
2018-03-16T13:34:00.649Z,5.10
2018-03-16T13:39:03.274Z,8.10
2018-03-16T13:44:06.794Z,4.80
2018-03-16T13:49:09.454Z,6.83
2018-03-16T13:54:12.112Z,2.90
2018-03-16T13:59:15.584Z,1.93
2018-03-16T14:04:18.270Z,3.73
2018-03-16T14:09:20.947Z,5.40
2018-03-16T14:14:23.640Z,2.67
2018-03-16T14:19:26.293Z,2.93
2018-03-16T14:24:28.950Z,4.33
2018-03-16T14:29:31.652Z,3.13
2018-03-16T14:34:34.313Z,7.10
2018-03-16T14:39:37.028Z,4.50
2018-03-16T14:44:39.691Z,2.63
2018-03-16T14:49:42.647Z,2.93
2018-03-16T14:54:45.367Z,3.43
2018-03-16T14:59:48.090Z,5.00
2018-03-16T15:04:50.757Z,2.20
2018-03-16T15:09:55.298Z,3.83
2018-03-16T15:14:57.991Z,2.40
2018-03-16T15:20:00.644Z,6.73
2018-03-16T15:25:03.333Z,3.10
2018-03-16T15:30:05.957Z,9.13
2018-03-16T15:35:10.308Z,2.57
2018-03-16T15:40:12.976Z,3.83
2018-03-16T15:45:15.595Z,2.53
2018-03-16T15:50:18.177Z,8.00
2018-03-16T15:55:21.639Z,3.20
2018-03-16T16:00:24.286Z,6.03
2018-03-16T16:05:26.966Z,3.33
2018-03-16T16:10:29.578Z,4.17
2018-03-16T16:15:32.185Z,3.23
2018-03-16T16:20:34.796Z,3.50
2018-03-16T16:25:37.436Z,5.23
2018-03-16T16:30:40.052Z,6.80
2018-03-16T16:35:42.751Z,3.70
2018-03-16T16:40:45.392Z,2.87
2018-03-16T16:45:48.018Z,8.20
2018-03-16T16:50:50.613Z,3.23
2018-03-16T16:55:53.257Z,4.63
2018-03-16T17:00:56.359Z,7.10
2018-03-16T17:05:59.874Z,5.30
2018-03-16T17:11:02.534Z,7.70
2018-03-16T17:16:05.218Z,10.90
2018-03-16T17:21:07.851Z,9.80
2018-03-16T17:26:10.480Z,8.40
2018-03-16T17:31:13.163Z,5.80
2018-03-16T17:36:15.926Z,8.80
2018-03-16T17:41:18.793Z,8.43
2018-03-16T17:46:22.202Z,8.03
2018-03-16T17:51:25.584Z,11.30
2018-03-16T17:56:28.234Z,10.67
2018-03-16T18:01:31.844Z,26.67
2018-03-16T18:06:35.268Z,18.70
2018-03-16T18:11:37.940Z,18.47
2018-03-16T18:16:40.589Z,19.10
2018-03-16T18:21:43.239Z,15.93
2018-03-16T18:26:45.973Z,15.83
2018-03-16T18:31:48.668Z,18.27
2018-03-16T18:36:51.419Z,33.10
2018-03-16T18:41:54.056Z,27.80
2018-03-16T18:46:57.479Z,14.50
2018-03-16T18:52:00.260Z,14.93
2018-03-16T18:57:02.916Z,17.10
2018-03-16T19:02:05.704Z,23.13
2018-03-16T19:07:08.350Z,12.47
2018-03-16T19:12:11.011Z,27.37
2018-03-16T19:17:13.705Z,31.40
2018-03-16T19:22:16.599Z,26.53
2018-03-16T19:27:19.314Z,14.57
2018-03-16T19:32:22.049Z,13.20
2018-03-16T19:37:25.520Z,17.67
2018-03-16T19:42:28.246Z,76.00
2018-03-16T19:47:31.248Z,29.00
2018-03-16T19:52:34.016Z,19.00
2018-03-16T19:57:36.778Z,27.13
2018-03-16T20:02:39.388Z,20.77
2018-03-16T20:07:42.129Z,19.20
2018-03-16T20:12:44.804Z,46.67
2018-03-16T20:17:47.505Z,26.80
2018-03-16T20:22:50.151Z,21.93
2018-03-16T20:27:52.816Z,19.97
2018-03-16T20:32:55.528Z,19.37
2018-03-16T20:37:58.108Z,25.97
2018-03-16T20:43:00.712Z,21.47
2018-03-16T20:48:03.324Z,23.30
2018-03-16T20:53:05.962Z,18.63
2018-03-16T20:58:09.362Z,24.03
2018-03-16T21:03:12.684Z,27.23
2018-03-16T21:08:15.307Z,25.13
2018-03-16T21:13:18.692Z,24.50
2018-03-16T21:18:21.299Z,19.77
2018-03-16T21:23:24.783Z,21.17
2018-03-16T21:28:27.425Z,16.13
2018-03-16T21:33:31.349Z,15.03
2018-03-16T21:38:35.429Z,15.90
2018-03-16T21:43:38.065Z,17.00
2018-03-16T21:48:40.674Z,18.00
2018-03-16T21:53:44.741Z,18.27
2018-03-16T21:58:47.402Z,14.23
2018-03-16T22:03:50.767Z,20.67
2018-03-16T22:08:53.429Z,31.43
2018-03-16T22:13:56.835Z,22.47
2018-03-16T22:19:00.217Z,22.00
2018-03-16T22:24:02.868Z,20.90
2018-03-16T22:29:05.488Z,39.87
2018-03-16T22:34:08.115Z,30.13
2018-03-16T22:39:10.746Z,32.93
2018-03-16T22:44:13.357Z,43.30
2018-03-16T22:49:15.966Z,55.77
2018-03-16T22:54:18.576Z,48.43
2018-03-16T22:59:21.181Z,30.03
2018-03-16T23:04:23.830Z,32.20
2018-03-16T23:09:27.295Z,32.17
2018-03-16T23:14:29.908Z,31.90
2018-03-16T23:19:32.543Z,28.63
2018-03-16T23:24:35.920Z,25.60
2018-03-16T23:29:38.532Z,21.93
2018-03-16T23:34:45.681Z,15.27
2018-03-16T23:39:48.276Z,20.20
2018-03-16T23:44:50.937Z,20.90
2018-03-16T23:49:53.537Z,17.17
2018-03-16T23:54:56.153Z,21.53
2018-03-16T23:59:59.536Z,22.73
